createdAt,value
2022-12-13T00:01:47.497Z,6.43
2022-12-13T00:04:16.063Z,7.38
2022-12-13T00:06:44.869Z,7.55
2022-12-13T00:09:15.321Z,8.65
2022-12-13T00:11:43.948Z,5.85
2022-12-13T00:14:14.199Z,6.22
2022-12-13T00:16:46.697Z,6.10
2022-12-13T00:19:15.542Z,6.68
2022-12-13T00:21:43.759Z,5.82
2022-12-13T00:24:12.051Z,7.05
2022-12-13T00:26:41.698Z,6.45
2022-12-13T00:29:10.017Z,7.78
2022-12-13T00:31:59.969Z,7.30
2022-12-13T00:34:27.162Z,6.88
2022-12-13T00:36:55.883Z,6.63
2022-12-13T00:39:24.041Z,5.82
2022-12-13T00:41:53.663Z,7.13
2022-12-13T00:44:21.943Z,6.95
2022-12-13T00:46:51.836Z,6.60
2022-12-13T00:49:20.926Z,7.50
2022-12-13T00:51:49.790Z,7.40
2022-12-13T00:54:18.645Z,7.15
2022-12-13T00:56:46.859Z,7.47
2022-12-13T00:59:16.852Z,7.50
2022-12-13T01:01:45.582Z,6.95
2022-12-13T01:04:14.534Z,7.38
2022-12-13T01:06:45.172Z,6.97
2022-12-13T01:09:19.172Z,6.40
2022-12-13T01:11:48.275Z,6.18
2022-12-13T01:14:18.700Z,6.43
2022-12-13T01:16:47.216Z,7.35
2022-12-13T01:19:15.577Z,6.47
2022-12-13T01:21:43.879Z,7.82
2022-12-13T01:24:12.229Z,6.90
2022-12-13T01:26:40.343Z,8.18
2022-12-13T01:29:09.102Z,6.35
2022-12-13T01:31:41.504Z,7.68
2022-12-13T01:34:11.413Z,6.60
2022-12-13T01:36:40.637Z,8.88
2022-12-13T01:39:15.293Z,8.02
2022-12-13T01:41:45.590Z,6.03
2022-12-13T01:44:50.876Z,7.25
2022-12-13T01:47:25.877Z,7.03
2022-12-13T01:49:57.441Z,7.20
2022-12-13T01:52:29.878Z,7.57
2022-12-13T01:55:03.553Z,9.77
2022-12-13T01:57:34.256Z,7.18
2022-12-13T02:00:03.695Z,7.70
2022-12-13T02:02:33.335Z,7.95
2022-12-13T02:05:06.940Z,7.55
2022-12-13T02:07:37.859Z,7.03
2022-12-13T02:10:08.751Z,5.78
2022-12-13T02:12:38.874Z,8.05
2022-12-13T02:15:11.776Z,7.13
2022-12-13T02:17:53.241Z,7.95
2022-12-13T02:20:47.820Z,7.53
2022-12-13T02:23:39.698Z,7.88
2022-12-13T02:26:31.160Z,7.50
2022-12-13T02:29:30.059Z,7.38
2022-12-13T02:32:04.398Z,7.20
2022-12-13T02:34:38.975Z,6.70
2022-12-13T02:37:17.460Z,8.07
2022-12-13T02:39:52.473Z,8.27
2022-12-13T02:42:25.181Z,7.40
2022-12-13T02:44:58.598Z,5.97
2022-12-13T02:47:32.108Z,6.82
2022-12-13T02:50:04.232Z,6.38
2022-12-13T02:52:33.661Z,6.68
2022-12-13T02:55:01.898Z,7.68
2022-12-13T02:57:33.546Z,6.90
2022-12-13T03:00:06.271Z,7.80
2022-12-13T03:02:52.042Z,7.55
2022-12-13T03:05:46.839Z,7.15
2022-12-13T03:08:23.929Z,5.95
2022-12-13T03:11:03.428Z,7.78
2022-12-13T03:13:38.544Z,7.47
2022-12-13T03:16:14.516Z,6.82
2022-12-13T03:18:54.067Z,7.18
2022-12-13T03:21:22.522Z,6.88
2022-12-13T03:23:50.829Z,7.40
2022-12-13T03:26:22.847Z,5.53
2022-12-13T03:28:51.932Z,7.00
2022-12-13T03:31:20.667Z,6.70
2022-12-13T03:33:48.954Z,7.10
2022-12-13T03:36:19.937Z,7.18
2022-12-13T03:38:52.360Z,6.00
2022-12-13T03:41:23.049Z,6.47
2022-12-13T03:43:51.814Z,7.18
2022-12-13T03:46:19.964Z,7.22
2022-12-13T03:48:48.181Z,6.53
2022-12-13T03:51:16.381Z,7.00
2022-12-13T03:53:45.985Z,6.55
2022-12-13T03:56:14.405Z,6.38
2022-12-13T03:58:43.292Z,6.72
2022-12-13T04:01:14.211Z,6.72
2022-12-13T04:03:43.978Z,7.43
2022-12-13T04:06:12.516Z,6.63
2022-12-13T04:08:52.444Z,6.35
2022-12-13T04:11:42.894Z,7.60
2022-12-13T04:14:12.294Z,6.82
2022-12-13T04:16:51.344Z,7.60
2022-12-13T04:19:23.389Z,6.72
2022-12-13T04:21:54.260Z,5.88
2022-12-13T04:24:31.409Z,8.20
2022-12-13T04:27:01.433Z,7.38
2022-12-13T04:29:34.143Z,7.50
2022-12-13T04:32:03.314Z,6.50
2022-12-13T04:34:36.808Z,6.45
2022-12-13T04:37:06.086Z,7.25
2022-12-13T04:39:35.703Z,6.50
2022-12-13T04:42:05.799Z,5.70
2022-12-13T04:44:37.012Z,6.55
2022-12-13T04:47:06.161Z,5.78
2022-12-13T04:49:35.026Z,6.47
2022-12-13T04:52:04.078Z,6.47
2022-12-13T04:54:36.079Z,7.75
2022-12-13T04:57:08.298Z,5.28
2022-12-13T04:59:36.959Z,5.88
2022-12-13T05:02:06.268Z,6.35
2022-12-13T05:04:34.633Z,5.18
2022-12-13T05:07:03.191Z,6.25
2022-12-13T05:09:31.484Z,5.90
2022-12-13T05:12:01.479Z,7.10
2022-12-13T05:14:32.326Z,7.07
2022-12-13T05:17:01.006Z,5.93
2022-12-13T05:19:31.398Z,5.45
2022-12-13T05:22:01.578Z,6.68
2022-12-13T05:24:31.494Z,7.40
2022-12-13T05:27:00.213Z,5.88
2022-12-13T05:29:28.558Z,6.25
2022-12-13T05:31:58.289Z,6.60
2022-12-13T05:34:26.546Z,5.72
2022-12-13T05:36:55.046Z,6.28
2022-12-13T05:39:28.125Z,5.07
2022-12-13T05:42:01.303Z,5.75
2022-12-13T05:44:31.514Z,6.95
2022-12-13T05:47:01.809Z,6.47
2022-12-13T05:49:30.564Z,5.32
2022-12-13T05:51:58.855Z,6.03
2022-12-13T05:54:27.083Z,6.72
2022-12-13T05:56:55.293Z,6.43
2022-12-13T05:59:23.543Z,6.20
2022-12-13T06:01:51.939Z,6.07
2022-12-13T06:04:23.149Z,6.88
2022-12-13T06:06:52.073Z,5.25
2022-12-13T06:09:20.361Z,6.10
2022-12-13T06:11:48.837Z,5.68
2022-12-13T06:14:21.820Z,7.43
2022-12-13T06:16:51.772Z,6.28
2022-12-13T06:19:21.850Z,6.28
2022-12-13T06:21:50.147Z,5.80
2022-12-13T06:24:19.543Z,6.40
2022-12-13T06:26:48.306Z,6.93
2022-12-13T06:29:23.734Z,5.10
2022-12-13T06:32:02.499Z,6.03
2022-12-13T06:34:35.721Z,5.88
2022-12-13T06:37:06.980Z,5.28
2022-12-13T06:39:35.972Z,5.18
2022-12-13T06:42:06.305Z,6.63
2022-12-13T06:44:35.028Z,5.28
2022-12-13T06:47:10.296Z,5.38
2022-12-13T06:49:44.219Z,5.80
2022-12-13T06:52:14.617Z,6.38
2022-12-13T06:54:43.597Z,6.18
2022-12-13T06:57:12.541Z,7.13
2022-12-13T06:59:41.636Z,8.82
2022-12-13T07:02:24.499Z,8.43
2022-12-13T07:04:56.202Z,8.40
2022-12-13T07:07:25.766Z,11.82
2022-12-13T07:09:54.290Z,8.82
2022-12-13T07:12:22.680Z,11.90
2022-12-13T07:14:51.015Z,7.75
2022-12-13T07:17:34.059Z,12.05
2022-12-13T07:20:08.469Z,12.63
2022-12-13T07:22:44.952Z,8.40
2022-12-13T07:25:27.503Z,16.17
2022-12-13T07:28:02.243Z,14.60
2022-12-13T07:30:32.161Z,19.58
2022-12-13T07:33:00.585Z,11.38
2022-12-13T07:35:30.581Z,17.52
2022-12-13T07:37:59.078Z,16.05
2022-12-13T07:40:27.611Z,14.13
2022-12-13T07:42:57.112Z,11.02
2022-12-13T07:45:25.561Z,14.82
2022-12-13T07:47:54.114Z,11.05
2022-12-13T07:50:25.083Z,11.10
2022-12-13T07:52:55.221Z,15.88
2022-12-13T07:55:33.338Z,14.82
2022-12-13T07:58:09.721Z,14.45
2022-12-13T08:00:38.432Z,9.45
2022-12-13T08:03:07.384Z,13.38
2022-12-13T08:05:38.736Z,15.07
2022-12-13T08:08:11.939Z,10.90
2022-12-13T08:10:40.360Z,13.00
2022-12-13T08:13:08.553Z,10.80
2022-12-13T08:15:36.791Z,11.55
2022-12-13T08:18:05.242Z,11.95
2022-12-13T08:20:33.750Z,10.90
2022-12-13T08:23:02.849Z,10.60
2022-12-13T08:25:33.038Z,7.55
2022-12-13T08:28:01.996Z,12.07
2022-12-13T08:30:31.994Z,8.57
2022-12-13T08:33:05.039Z,9.48
2022-12-13T08:35:34.993Z,12.07
2022-12-13T08:38:04.198Z,7.97
2022-12-13T08:40:34.890Z,13.02
2022-12-13T08:43:03.623Z,10.98
2022-12-13T08:45:34.245Z,11.73
2022-12-13T08:48:03.485Z,10.60
2022-12-13T08:50:32.241Z,10.48
2022-12-13T08:53:00.502Z,9.45
2022-12-13T08:55:31.824Z,9.57
2022-12-13T08:58:08.465Z,8.10
2022-12-13T09:00:37.464Z,8.30
2022-12-13T09:03:09.755Z,7.90
2022-12-13T09:05:38.754Z,7.70
2022-12-13T09:08:23.476Z,10.38
2022-12-13T09:11:00.158Z,9.88
2022-12-13T09:13:32.210Z,9.65
2022-12-13T09:16:04.905Z,10.73
2022-12-13T09:21:12.118Z,7.55
2022-12-13T09:23:45.720Z,8.27
2022-12-13T09:26:15.821Z,6.63
2022-12-13T09:28:45.485Z,9.32
2022-12-13T09:31:15.455Z,6.75
2022-12-13T09:33:44.468Z,7.03
2022-12-13T09:36:14.841Z,8.05
2022-12-13T09:38:43.330Z,11.20
2022-12-13T09:41:20.180Z,8.02
2022-12-13T09:44:00.862Z,8.38
2022-12-13T09:46:34.141Z,7.82
2022-12-13T09:49:05.721Z,10.20
2022-12-13T09:51:47.317Z,10.32
2022-12-13T09:54:22.790Z,10.20
2022-12-13T09:56:52.524Z,8.27
2022-12-13T09:59:28.244Z,11.25
2022-12-13T10:01:56.970Z,9.18
2022-12-13T10:04:25.304Z,7.57
2022-12-13T10:06:55.111Z,7.20
2022-12-13T10:09:23.970Z,6.97
2022-12-13T10:11:54.484Z,9.65
2022-12-13T10:14:28.853Z,7.05
2022-12-13T10:16:59.187Z,8.13
2022-12-13T10:19:35.665Z,9.60
2022-12-13T10:22:07.501Z,8.90
2022-12-13T10:24:50.902Z,8.20
2022-12-13T10:27:21.235Z,7.57
2022-12-13T10:30:06.589Z,7.77
2022-12-13T10:32:43.674Z,14.10
2022-12-13T10:35:24.443Z,8.65
2022-12-13T10:37:53.084Z,9.65
2022-12-13T10:40:33.556Z,9.48
2022-12-13T10:43:12.739Z,11.00
2022-12-13T10:45:42.664Z,9.38
2022-12-13T10:48:22.286Z,10.80
2022-12-13T10:51:01.756Z,11.35
2022-12-13T10:53:33.146Z,10.85
2022-12-13T10:56:02.776Z,9.93
2022-12-13T10:58:40.475Z,12.15
2022-12-13T11:01:22.617Z,8.57
2022-12-13T11:04:02.081Z,13.93
2022-12-13T11:06:43.689Z,7.22
2022-12-13T11:09:22.919Z,8.75
2022-12-13T11:11:58.125Z,8.80
2022-12-13T11:14:31.907Z,8.48
2022-12-13T11:17:09.124Z,9.13
2022-12-13T11:19:41.119Z,7.13
2022-12-13T11:22:11.114Z,8.05
2022-12-13T11:24:42.326Z,7.13
2022-12-13T11:27:33.332Z,9.15
2022-12-13T11:30:13.897Z,11.55
2022-12-13T11:33:10.031Z,9.27
2022-12-13T11:35:59.605Z,9.55
2022-12-13T11:38:35.562Z,5.60
2022-12-13T11:41:32.234Z,7.50
2022-12-13T11:44:10.308Z,9.40
2022-12-13T11:46:42.866Z,7.10
2022-12-13T11:49:18.075Z,7.15
2022-12-13T11:52:03.960Z,9.55
2022-12-13T11:54:41.186Z,6.65
2022-12-13T11:57:19.252Z,6.18
2022-12-13T11:59:50.090Z,6.15
2022-12-13T12:02:26.964Z,7.13
2022-12-13T12:05:01.056Z,6.28
2022-12-13T12:07:35.112Z,5.15
2022-12-13T12:10:20.003Z,6.63
2022-12-13T12:12:53.305Z,6.38
2022-12-13T12:15:26.681Z,7.07
2022-12-13T12:17:56.144Z,5.97
2022-12-13T12:20:43.737Z,6.38
2022-12-13T12:23:20.921Z,5.45
2022-12-13T12:25:55.083Z,5.93
2022-12-13T12:28:35.560Z,5.45
2022-12-13T12:31:20.587Z,5.93
2022-12-13T12:34:00.725Z,6.60
2022-12-13T12:36:47.275Z,4.78
2022-12-13T12:39:44.687Z,6.00
2022-12-13T12:42:56.479Z,6.00
2022-12-13T12:46:01.843Z,5.47
2022-12-13T12:49:01.679Z,6.00
2022-12-13T12:51:39.858Z,5.22
2022-12-13T12:54:31.957Z,6.13
2022-12-13T12:57:10.985Z,6.15
2022-12-13T12:59:49.467Z,6.13
2022-12-13T13:02:23.222Z,4.40
2022-12-13T13:05:03.634Z,5.70
2022-12-13T13:07:39.869Z,5.13
2022-12-13T13:10:16.290Z,5.15
2022-12-13T13:13:11.944Z,5.35
2022-12-13T13:16:02.979Z,5.18
2022-12-13T13:19:01.148Z,4.47
2022-12-13T13:21:48.718Z,5.32
2022-12-13T13:24:21.997Z,5.90
2022-12-13T13:26:52.615Z,4.80
2022-12-13T13:29:38.950Z,4.32
2022-12-13T13:35:53.405Z,3.75
2022-12-13T13:38:50.889Z,5.72
2022-12-13T13:41:41.606Z,3.83
2022-12-13T13:44:43.169Z,5.25
2022-12-13T13:47:12.401Z,4.95
2022-12-13T13:49:59.950Z,6.18
2022-12-13T13:52:38.182Z,4.38
2022-12-13T13:55:45.557Z,4.80
2022-12-13T13:58:44.949Z,6.47
2022-12-13T14:01:41.710Z,3.55
2022-12-13T14:04:46.260Z,5.80
2022-12-13T14:07:48.366Z,4.10
2022-12-13T14:16:05.587Z,3.97
2022-12-13T14:19:20.502Z,5.55
2022-12-13T14:21:59.572Z,4.90
2022-12-13T14:24:39.713Z,4.30
2022-12-13T14:27:24.637Z,5.45
2022-12-13T14:29:58.114Z,3.92
2022-12-13T14:32:30.485Z,5.05
2022-12-13T14:35:25.442Z,4.00
2022-12-13T14:37:57.893Z,4.68
2022-12-13T14:40:30.013Z,4.22
2022-12-13T14:42:58.445Z,6.05
2022-12-13T14:45:29.575Z,4.75
2022-12-13T14:48:01.498Z,5.25
2022-12-13T14:50:33.227Z,4.57
2022-12-13T14:53:03.766Z,5.78
2022-12-13T14:55:33.771Z,3.45
2022-12-13T14:58:04.312Z,4.65
2022-12-13T15:00:35.733Z,3.97
2022-12-13T15:03:07.363Z,5.47
2022-12-13T15:05:44.323Z,3.88
2022-12-13T15:08:18.943Z,5.40
2022-12-13T15:10:49.416Z,3.60
2022-12-13T15:13:29.374Z,5.05
2022-12-13T15:16:01.355Z,5.00
2022-12-13T15:18:32.957Z,5.47
2022-12-13T15:21:01.266Z,4.18
2022-12-13T15:23:33.917Z,6.10
2022-12-13T15:26:04.466Z,4.70
2022-12-13T15:28:35.674Z,4.07
2022-12-13T15:31:07.201Z,4.22
2022-12-13T15:33:44.024Z,5.18
2022-12-13T15:36:19.326Z,4.65
2022-12-13T15:41:20.010Z,9.57
2022-12-13T15:43:51.842Z,4.35
2022-12-13T15:46:27.224Z,4.18
2022-12-13T15:48:58.638Z,5.82
2022-12-13T15:51:30.114Z,5.13
2022-12-13T15:54:08.631Z,4.25
2022-12-13T15:56:39.338Z,9.40
2022-12-13T15:59:25.309Z,9.38
2022-12-13T16:01:58.502Z,4.38
2022-12-13T16:04:30.410Z,5.72
2022-12-13T16:06:59.432Z,4.47
2022-12-13T16:09:38.216Z,4.25
2022-12-13T16:12:08.106Z,4.35
2022-12-13T16:14:49.773Z,6.25
2022-12-13T16:17:25.395Z,3.67
2022-12-13T16:19:57.327Z,6.38
2022-12-13T16:22:25.994Z,4.57
2022-12-13T16:24:56.488Z,4.80
2022-12-13T16:27:25.113Z,4.03
2022-12-13T16:29:53.527Z,5.22
2022-12-13T16:32:22.381Z,3.88
2022-12-13T16:34:50.934Z,5.05
2022-12-13T16:37:27.525Z,4.93
2022-12-13T16:39:56.032Z,5.15
2022-12-13T16:42:26.304Z,5.18
2022-12-13T16:45:40.564Z,5.60
2022-12-13T16:47:49.100Z,5.00
2022-12-13T16:50:20.114Z,6.00
2022-12-13T16:52:49.857Z,6.90
2022-12-13T16:55:18.594Z,5.30
2022-12-13T16:57:57.668Z,4.50
2022-12-13T17:00:26.840Z,4.00
2022-12-13T17:02:55.176Z,4.20
2022-12-13T17:05:24.485Z,4.13
2022-12-13T17:07:55.002Z,2.90
2022-12-13T17:10:23.500Z,3.40
2022-12-13T17:12:51.874Z,4.35
2022-12-13T17:15:20.506Z,5.47
2022-12-13T17:17:49.260Z,5.47
2022-12-13T17:20:19.045Z,3.70
2022-12-13T17:22:47.557Z,4.75
2022-12-13T17:25:17.306Z,4.63
2022-12-13T17:27:46.107Z,4.60
2022-12-13T17:30:17.048Z,5.18
2022-12-13T17:35:18.085Z,4.10
2022-12-13T17:37:46.951Z,3.17
2022-12-13T17:40:18.273Z,3.13
2022-12-13T17:42:49.406Z,3.42
2022-12-13T17:45:19.534Z,3.08
2022-12-13T17:47:48.066Z,4.93
2022-12-13T17:50:16.567Z,4.10
2022-12-13T17:52:44.904Z,5.65
2022-12-13T17:55:18.114Z,3.80
2022-12-13T17:57:48.255Z,3.80
2022-12-13T18:00:17.567Z,3.97
2022-12-13T18:02:55.603Z,4.40
2022-12-13T18:05:26.063Z,2.83
2022-12-13T18:07:54.410Z,2.53
2022-12-13T18:10:29.324Z,5.03
2022-12-13T18:12:59.827Z,3.75
2022-12-13T18:15:28.619Z,2.85
2022-12-13T18:18:11.191Z,3.05
2022-12-13T18:20:40.427Z,3.42
2022-12-13T18:23:08.780Z,4.00
2022-12-13T18:25:37.866Z,3.72
2022-12-13T18:28:09.447Z,4.03
2022-12-13T18:30:38.028Z,3.25
2022-12-13T18:33:06.670Z,2.25
2022-12-13T18:35:35.091Z,2.97
2022-12-13T18:38:03.354Z,2.60
2022-12-13T18:40:32.514Z,3.03
2022-12-13T18:43:00.787Z,2.10
2022-12-13T18:45:30.390Z,4.93
2022-12-13T18:47:58.681Z,2.83
2022-12-13T18:50:26.952Z,2.58
2022-12-13T18:52:55.111Z,4.03
2022-12-13T18:55:23.544Z,4.68
2022-12-13T18:57:52.685Z,3.40
2022-12-13T19:00:21.409Z,4.25
2022-12-13T19:02:51.093Z,4.05
2022-12-13T19:05:19.539Z,4.78
2022-12-13T19:07:47.774Z,2.95
2022-12-13T19:10:16.063Z,2.88
2022-12-13T19:12:44.453Z,2.92
2022-12-13T19:15:13.260Z,2.85
2022-12-13T19:17:41.474Z,3.38
2022-12-13T19:20:12.183Z,4.05
2022-12-13T19:22:40.666Z,3.15
2022-12-13T19:25:10.372Z,2.80
2022-12-13T19:27:38.727Z,3.25
2022-12-13T19:30:08.640Z,3.97
2022-12-13T19:32:36.971Z,2.80
2022-12-13T19:35:05.625Z,3.08
2022-12-13T19:37:37.928Z,3.40
2022-12-13T19:40:07.048Z,3.65
2022-12-13T19:42:35.362Z,2.92
2022-12-13T19:45:03.871Z,4.50
2022-12-13T19:47:32.459Z,3.15
2022-12-13T19:50:00.821Z,3.28
2022-12-13T19:52:29.207Z,3.55
2022-12-13T19:54:59.551Z,3.40
2022-12-13T19:57:28.103Z,2.97
2022-12-13T19:59:56.744Z,3.00
2022-12-13T20:02:25.471Z,2.85
2022-12-13T20:04:54.141Z,3.20
2022-12-13T20:07:23.910Z,4.38
2022-12-13T20:09:52.221Z,3.72
2022-12-13T20:12:22.358Z,3.42
2022-12-13T20:14:50.669Z,2.80
2022-12-13T20:17:19.540Z,3.83
2022-12-13T20:19:48.128Z,4.00
2022-12-13T20:22:16.954Z,3.38
2022-12-13T20:24:45.566Z,2.90
2022-12-13T20:29:48.312Z,3.95
2022-12-13T20:32:17.423Z,3.63
2022-12-13T20:34:48.193Z,3.88
2022-12-13T20:37:18.572Z,3.30
2022-12-13T20:39:46.960Z,3.55
2022-12-13T20:42:15.404Z,2.92
2022-12-13T20:44:45.237Z,3.42
2022-12-13T20:47:14.293Z,2.95
2022-12-13T20:49:42.836Z,2.92
2022-12-13T20:52:17.085Z,2.30
2022-12-13T20:54:45.647Z,3.28
2022-12-13T20:57:14.034Z,3.38
2022-12-13T20:59:43.085Z,3.63
2022-12-13T21:02:13.996Z,4.65
2022-12-13T21:04:42.855Z,2.80
2022-12-13T21:07:11.684Z,3.40
2022-12-13T21:09:40.318Z,3.13
2022-12-13T21:12:09.077Z,2.90
2022-12-13T21:14:38.383Z,3.40
2022-12-13T21:17:09.760Z,3.22
2022-12-13T21:19:41.046Z,3.42
2022-12-13T21:22:09.784Z,3.25
2022-12-13T21:24:38.280Z,3.28
2022-12-13T21:27:06.545Z,3.08
2022-12-13T21:29:34.929Z,3.38
2022-12-13T21:32:03.527Z,3.20
2022-12-13T21:34:33.129Z,2.75
2022-12-13T21:37:03.025Z,2.95
2022-12-13T21:39:31.527Z,3.10
2022-12-13T21:42:00.079Z,2.72
2022-12-13T21:44:28.546Z,3.03
2022-12-13T21:47:13.166Z,3.83
2022-12-13T21:49:42.125Z,2.80
2022-12-13T21:52:18.660Z,3.05
2022-12-13T21:54:46.849Z,4.00
2022-12-13T21:57:32.521Z,3.67
2022-12-13T22:00:00.827Z,3.58
2022-12-13T22:02:29.192Z,3.20
2022-12-13T22:04:58.518Z,3.40
2022-12-13T22:07:29.873Z,2.92
2022-12-13T22:09:59.609Z,2.90
2022-12-13T22:12:33.162Z,3.33
2022-12-13T22:15:01.493Z,3.50
2022-12-13T22:17:35.576Z,3.83
2022-12-13T22:20:05.648Z,2.85
2022-12-13T22:22:35.807Z,3.33
2022-12-13T22:25:04.462Z,3.22
2022-12-13T22:27:32.788Z,3.92
2022-12-13T22:30:00.978Z,2.92
2022-12-13T22:32:31.468Z,2.80
2022-12-13T22:35:00.152Z,2.83
2022-12-13T22:37:28.425Z,3.63
2022-12-13T22:39:58.187Z,3.03
2022-12-13T22:42:26.387Z,3.63
2022-12-13T22:44:54.632Z,3.30
2022-12-13T22:47:22.851Z,3.28
2022-12-13T22:49:51.359Z,3.72
2022-12-13T22:52:19.835Z,2.90
2022-12-13T22:54:48.027Z,2.63
2022-12-13T22:57:17.598Z,4.03
2022-12-13T22:59:45.837Z,3.20
2022-12-13T23:02:14.335Z,2.55
2022-12-13T23:04:42.631Z,3.60
2022-12-13T23:07:10.923Z,3.17
2022-12-13T23:09:39.201Z,3.03
2022-12-13T23:12:25.088Z,2.75
2022-12-13T23:14:54.954Z,3.70
2022-12-13T23:17:23.184Z,3.30
2022-12-13T23:19:53.117Z,2.80
2022-12-13T23:22:22.794Z,2.53
2022-12-13T23:24:51.303Z,2.53
2022-12-13T23:27:21.491Z,2.67
2022-12-13T23:29:49.724Z,3.17
2022-12-13T23:32:20.532Z,3.40
2022-12-13T23:34:48.949Z,2.78
2022-12-13T23:37:17.575Z,2.55
2022-12-13T23:39:45.927Z,3.92
2022-12-13T23:42:14.408Z,3.38
2022-12-13T23:44:43.714Z,4.68
2022-12-13T23:47:12.167Z,3.75
2022-12-13T23:49:42.068Z,3.53
2022-12-13T23:52:10.690Z,3.13
2022-12-13T23:54:39.118Z,2.95
2022-12-13T23:57:07.624Z,3.78
2022-12-13T23:59:36.083Z,3.67
